NCAR-RAP Real-Time Weather Data

Output produced by METARs form (01 December 2020  18:28 UTC)
found at http://weather.rap.ucar.edu/surface/
 
KMLI 011652Z 33006KT 10SM CLR 01/M08 A3014 RMK AO2 SLP214 T00061078
KMLI 011552Z 33007KT 10SM CLR M01/M08 A3015 RMK AO2 SLP215 T10111078
KMLI 011452Z 30004KT 10SM CLR M03/M08 A3014 RMK AO2 SLP215 T10281078 51017
KMLI 011352Z 29004KT 10SM CLR M06/M09 A3014 RMK AO2 SLP213 T10561089
KMLI 011252Z 27004KT 10SM CLR M08/M11 A3011 RMK AO2 SLP204 T10831106
KMLI 011152Z 23003KT 10SM CLR M08/M11 A3009 RMK AO2 SLP198 T10781106 11056 21078 55000
KMLI 011052Z AUTO 29004KT 10SM CLR M07/M10 A3008 RMK AO2 SLP195 T10671100
KMLI 010952Z AUTO 26003KT 10SM CLR M07/M11 A3008 RMK AO2 SLP194 T10721106
KMLI 010752Z AUTO 27005KT 10SM CLR M07/M10 A3009 RMK AO2 SLP197 T10671100
KMLI 010652Z AUTO 27006KT 10SM CLR M07/M09 A3008 RMK AO2 SLP194 T10671094
KMLI 010552Z AUTO 24004KT 10SM CLR M07/M10 A3008 RMK AO2 SLP195 T10671100 11011 21067 400061067 58005
KMLI 010452Z AUTO 33004KT 10SM CLR M04/M09 A3009 RMK AO2 SLP197 T10391089